sensor_id;sensor_type;location;lat;lon;timestamp;P1;durP1;ratioP1;P2;durP2;ratioP2
37309;SDS011;23195;47.744;7.358;2024-03-23T00:54:30;5.90;;;2.40;;
37309;SDS011;23195;47.744;7.358;2024-03-23T00:56:56;3.10;;;2.57;;
37309;SDS011;23195;47.744;7.358;2024-03-23T00:59:21;2.80;;;2.50;;
37309;SDS011;23195;47.744;7.358;2024-03-23T01:01:52;4.33;;;2.57;;
37309;SDS011;23195;47.744;7.358;2024-03-23T01:04:18;8.93;;;2.70;;
37309;SDS011;23195;47.744;7.358;2024-03-23T01:06:44;2.57;;;2.30;;
37309;SDS011;23195;47.744;7.358;2024-03-23T01:09:09;5.00;;;2.67;;
37309;SDS011;23195;47.744;7.358;2024-03-23T01:11:36;3.10;;;2.50;;
37309;SDS011;23195;47.744;7.358;2024-03-23T01:14:02;4.23;;;2.40;;
37309;SDS011;23195;47.744;7.358;2024-03-23T01:16:28;6.60;;;2.63;;
37309;SDS011;23195;47.744;7.358;2024-03-23T01:18:54;3.20;;;2.43;;
37309;SDS011;23195;47.744;7.358;2024-03-23T01:21:19;5.37;;;2.50;;
37309;SDS011;23195;47.744;7.358;2024-03-23T01:23:48;3.97;;;2.60;;
37309;SDS011;23195;47.744;7.358;2024-03-23T01:26:13;4.27;;;2.73;;
37309;SDS011;23195;47.744;7.358;2024-03-23T01:28:40;5.40;;;3.00;;
37309;SDS011;23195;47.744;7.358;2024-03-23T01:31:06;7.00;;;2.80;;
37309;SDS011;23195;47.744;7.358;2024-03-23T01:33:31;6.40;;;3.10;;
37309;SDS011;23195;47.744;7.358;2024-03-23T01:35:57;4.63;;;2.70;;
37309;SDS011;23195;47.744;7.358;2024-03-23T01:38:23;3.87;;;2.77;;
37309;SDS011;23195;47.744;7.358;2024-03-23T01:40:49;5.27;;;3.10;;
37309;SDS011;23195;47.744;7.358;2024-03-23T01:43:14;4.10;;;3.00;;
37309;SDS011;23195;47.744;7.358;2024-03-23T01:45:43;4.03;;;3.20;;
37309;SDS011;23195;47.744;7.358;2024-03-23T01:48:08;5.17;;;2.87;;
37309;SDS011;23195;47.744;7.358;2024-03-23T01:50:36;6.40;;;2.90;;
37309;SDS011;23195;47.744;7.358;2024-03-23T01:53:02;4.83;;;2.90;;
37309;SDS011;23195;47.744;7.358;2024-03-23T01:55:31;3.03;;;2.70;;
37309;SDS011;23195;47.744;7.358;2024-03-23T01:57:57;4.83;;;3.10;;
37309;SDS011;23195;47.744;7.358;2024-03-23T02:00:23;4.43;;;3.30;;
37309;SDS011;23195;47.744;7.358;2024-03-23T02:02:52;5.30;;;2.70;;
37309;SDS011;23195;47.744;7.358;2024-03-23T02:05:18;4.10;;;3.00;;
37309;SDS011;23195;47.744;7.358;2024-03-23T02:07:44;5.97;;;3.53;;
37309;SDS011;23195;47.744;7.358;2024-03-23T02:10:10;3.90;;;3.30;;
37309;SDS011;23195;47.744;7.358;2024-03-23T02:12:38;5.50;;;3.03;;
37309;SDS011;23195;47.744;7.358;2024-03-23T02:15:04;3.50;;;2.90;;
37309;SDS011;23195;47.744;7.358;2024-03-23T02:17:36;6.63;;;3.50;;
37309;SDS011;23195;47.744;7.358;2024-03-23T02:20:02;5.03;;;3.33;;
37309;SDS011;23195;47.744;7.358;2024-03-23T02:22:37;6.10;;;3.43;;
37309;SDS011;23195;47.744;7.358;2024-03-23T02:25:06;6.07;;;3.30;;
37309;SDS011;23195;47.744;7.358;2024-03-23T02:27:32;5.00;;;3.50;;
37309;SDS011;23195;47.744;7.358;2024-03-23T02:30:00;4.30;;;3.30;;
37309;SDS011;23195;47.744;7.358;2024-03-23T02:32:26;4.50;;;3.47;;
37309;SDS011;23195;47.744;7.358;2024-03-23T02:34:52;4.77;;;3.10;;
37309;SDS011;23195;47.744;7.358;2024-03-23T02:37:18;6.83;;;3.40;;
37309;SDS011;23195;47.744;7.358;2024-03-23T02:39:43;3.73;;;3.00;;
37309;SDS011;23195;47.744;7.358;2024-03-23T02:42:09;3.57;;;3.23;;
37309;SDS011;23195;47.744;7.358;2024-03-23T02:44:35;8.33;;;3.53;;
37309;SDS011;23195;47.744;7.358;2024-03-23T02:47:01;5.30;;;3.27;;
37309;SDS011;23195;47.744;7.358;2024-03-23T02:49:27;4.97;;;3.30;;
37309;SDS011;23195;47.744;7.358;2024-03-23T02:51:53;5.10;;;3.73;;
37309;SDS011;23195;47.744;7.358;2024-03-23T02:54:19;5.30;;;3.33;;
37309;SDS011;23195;47.744;7.358;2024-03-23T02:56:44;5.90;;;3.90;;
37309;SDS011;23195;47.744;7.358;2024-03-23T02:59:10;6.63;;;3.20;;
37309;SDS011;23195;47.744;7.358;2024-03-23T03:01:36;4.80;;;3.33;;
37309;SDS011;23195;47.744;7.358;2024-03-23T03:04:02;4.13;;;3.10;;
37309;SDS011;23195;47.744;7.358;2024-03-23T03:06:27;4.20;;;3.60;;
37309;SDS011;23195;47.744;7.358;2024-03-23T03:08:55;8.73;;;3.33;;
37309;SDS011;23195;47.744;7.358;2024-03-23T03:11:20;4.63;;;3.33;;
37309;SDS011;23195;47.744;7.358;2024-03-23T03:13:46;4.70;;;3.10;;
37309;SDS011;23195;47.744;7.358;2024-03-23T03:16:12;6.43;;;3.03;;
37309;SDS011;23195;47.744;7.358;2024-03-23T03:18:39;4.90;;;3.40;;
37309;SDS011;23195;47.744;7.358;2024-03-23T03:21:05;5.00;;;3.40;;
37309;SDS011;23195;47.744;7.358;2024-03-23T03:23:36;8.20;;;3.70;;
37309;SDS011;23195;47.744;7.358;2024-03-23T03:26:03;3.60;;;3.30;;
37309;SDS011;23195;47.744;7.358;2024-03-23T03:28:30;4.37;;;3.30;;
37309;SDS011;23195;47.744;7.358;2024-03-23T03:31:00;4.47;;;3.53;;
37309;SDS011;23195;47.744;7.358;2024-03-23T03:33:26;5.40;;;3.87;;
37309;SDS011;23195;47.744;7.358;2024-03-23T03:35:55;5.27;;;3.57;;
37309;SDS011;23195;47.744;7.358;2024-03-23T03:38:21;4.53;;;3.20;;
37309;SDS011;23195;47.744;7.358;2024-03-23T03:40:46;3.87;;;3.40;;
37309;SDS011;23195;47.744;7.358;2024-03-23T03:43:12;5.57;;;3.70;;
37309;SDS011;23195;47.744;7.358;2024-03-23T03:45:38;4.73;;;3.70;;
37309;SDS011;23195;47.744;7.358;2024-03-23T03:48:05;5.13;;;3.53;;
37309;SDS011;23195;47.744;7.358;2024-03-23T03:50:31;7.10;;;3.77;;
37309;SDS011;23195;47.744;7.358;2024-03-23T03:52:56;6.07;;;3.57;;
37309;SDS011;23195;47.744;7.358;2024-03-23T03:55:22;5.07;;;3.47;;
37309;SDS011;23195;47.744;7.358;2024-03-23T03:57:51;6.90;;;3.93;;
37309;SDS011;23195;47.744;7.358;2024-03-23T04:00:17;5.10;;;3.53;;
37309;SDS011;23195;47.744;7.358;2024-03-23T04:02:42;6.03;;;4.00;;
37309;SDS011;23195;47.744;7.358;2024-03-23T04:05:08;4.70;;;4.00;;
37309;SDS011;23195;47.744;7.358;2024-03-23T04:07:34;5.30;;;3.80;;
37309;SDS011;23195;47.744;7.358;2024-03-23T04:10:00;7.07;;;4.00;;
37309;SDS011;23195;47.744;7.358;2024-03-23T04:12:26;7.30;;;4.10;;
37309;SDS011;23195;47.744;7.358;2024-03-23T04:14:51;6.53;;;4.07;;
37309;SDS011;23195;47.744;7.358;2024-03-23T04:17:17;6.67;;;4.10;;
37309;SDS011;23195;47.744;7.358;2024-03-23T04:19:44;9.43;;;4.77;;
37309;SDS011;23195;47.744;7.358;2024-03-23T04:22:10;6.80;;;5.17;;
37309;SDS011;23195;47.744;7.358;2024-03-23T04:24:36;8.90;;;5.23;;
37309;SDS011;23195;47.744;7.358;2024-03-23T04:27:02;9.33;;;5.63;;
37309;SDS011;23195;47.744;7.358;2024-03-23T04:29:28;10.90;;;6.30;;
37309;SDS011;23195;47.744;7.358;2024-03-23T04:31:53;10.40;;;6.10;;
37309;SDS011;23195;47.744;7.358;2024-03-23T04:34:20;12.57;;;6.60;;
37309;SDS011;23195;47.744;7.358;2024-03-23T04:36:46;10.17;;;7.30;;
37309;SDS011;23195;47.744;7.358;2024-03-23T04:39:12;9.67;;;6.87;;
37309;SDS011;23195;47.744;7.358;2024-03-23T04:41:37;10.53;;;7.00;;
37309;SDS011;23195;47.744;7.358;2024-03-23T04:44:03;11.33;;;7.47;;
37309;SDS011;23195;47.744;7.358;2024-03-23T04:46:29;8.30;;;6.80;;
37309;SDS011;23195;47.744;7.358;2024-03-23T04:48:55;12.47;;;7.17;;
37309;SDS011;23195;47.744;7.358;2024-03-23T04:51:24;13.50;;;7.13;;
37309;SDS011;23195;47.744;7.358;2024-03-23T04:53:50;11.33;;;7.40;;
37309;SDS011;23195;47.744;7.358;2024-03-23T04:56:16;10.43;;;7.53;;
37309;SDS011;23195;47.744;7.358;2024-03-23T04:58:44;9.87;;;6.87;;
37309;SDS011;23195;47.744;7.358;2024-03-23T05:01:10;10.83;;;6.97;;
37309;SDS011;23195;47.744;7.358;2024-03-23T05:03:37;14.00;;;7.50;;
37309;SDS011;23195;47.744;7.358;2024-03-23T05:06:03;9.10;;;6.50;;
37309;SDS011;23195;47.744;7.358;2024-03-23T05:08:30;12.47;;;6.90;;
37309;SDS011;23195;47.744;7.358;2024-03-23T05:10:56;10.93;;;7.40;;
37309;SDS011;23195;47.744;7.358;2024-03-23T05:13:21;10.93;;;7.50;;
37309;SDS011;23195;47.744;7.358;2024-03-23T05:15:54;12.17;;;7.53;;
37309;SDS011;23195;47.744;7.358;2024-03-23T05:18:20;11.20;;;7.20;;
37309;SDS011;23195;47.744;7.358;2024-03-23T05:20:46;12.63;;;7.80;;
37309;SDS011;23195;47.744;7.358;2024-03-23T05:23:12;11.73;;;8.20;;
37309;SDS011;23195;47.744;7.358;2024-03-23T05:25:38;11.93;;;7.93;;
37309;SDS011;23195;47.744;7.358;2024-03-23T05:28:04;12.73;;;8.00;;
37309;SDS011;23195;47.744;7.358;2024-03-23T05:30:30;12.30;;;8.57;;
37309;SDS011;23195;47.744;7.358;2024-03-23T05:32:56;11.37;;;7.90;;
37309;SDS011;23195;47.744;7.358;2024-03-23T05:35:22;12.10;;;8.40;;
37309;SDS011;23195;47.744;7.358;2024-03-23T05:37:47;13.50;;;8.80;;
37309;SDS011;23195;47.744;7.358;2024-03-23T05:40:13;13.80;;;8.90;;
37309;SDS011;23195;47.744;7.358;2024-03-23T05:42:40;11.20;;;7.67;;
37309;SDS011;23195;47.744;7.358;2024-03-23T05:45:06;12.00;;;8.50;;
37309;SDS011;23195;47.744;7.358;2024-03-23T05:47:33;10.90;;;8.33;;
37309;SDS011;23195;47.744;7.358;2024-03-23T05:49:58;11.20;;;8.10;;
37309;SDS011;23195;47.744;7.358;2024-03-23T05:52:24;11.97;;;8.17;;
37309;SDS011;23195;47.744;7.358;2024-03-23T05:54:50;11.83;;;7.43;;
37309;SDS011;23195;47.744;7.358;2024-03-23T05:57:16;11.80;;;7.77;;
37309;SDS011;23195;47.744;7.358;2024-03-23T05:59:44;9.70;;;7.63;;
37309;SDS011;23195;47.744;7.358;2024-03-23T06:02:10;13.10;;;7.60;;
37309;SDS011;23195;47.744;7.358;2024-03-23T06:04:36;10.77;;;7.17;;
37309;SDS011;23195;47.744;7.358;2024-03-23T06:07:02;11.13;;;7.37;;
37309;SDS011;23195;47.744;7.358;2024-03-23T06:09:28;11.43;;;7.73;;
37309;SDS011;23195;47.744;7.358;2024-03-23T06:11:56;10.83;;;7.23;;
37309;SDS011;23195;47.744;7.358;2024-03-23T06:14:22;9.30;;;7.07;;
37309;SDS011;23195;47.744;7.358;2024-03-23T06:16:48;8.37;;;6.07;;
37309;SDS011;23195;47.744;7.358;2024-03-23T06:19:14;7.53;;;5.87;;
37309;SDS011;23195;47.744;7.358;2024-03-23T06:21:44;7.37;;;5.20;;
37309;SDS011;23195;47.744;7.358;2024-03-23T06:24:10;4.57;;;3.33;;
37309;SDS011;23195;47.744;7.358;2024-03-23T06:26:37;3.17;;;2.87;;
37309;SDS011;23195;47.744;7.358;2024-03-23T06:29:03;2.80;;;2.50;;
37309;SDS011;23195;47.744;7.358;2024-03-23T06:31:30;3.83;;;1.60;;
37309;SDS011;23195;47.744;7.358;2024-03-23T06:33:56;1.63;;;1.30;;
37309;SDS011;23195;47.744;7.358;2024-03-23T06:36:22;1.13;;;1.03;;
37309;SDS011;23195;47.744;7.358;2024-03-23T06:38:47;0.70;;;0.70;;
37309;SDS011;23195;47.744;7.358;2024-03-23T06:41:13;0.40;;;0.40;;
37309;SDS011;23195;47.744;7.358;2024-03-23T06:43:39;0.40;;;0.40;;
37309;SDS011;23195;47.744;7.358;2024-03-23T06:46:04;0.73;;;0.20;;
37309;SDS011;23195;47.744;7.358;2024-03-23T06:48:33;0.50;;;0.40;;
37309;SDS011;23195;47.744;7.358;2024-03-23T06:50:59;0.20;;;0.20;;
37309;SDS011;23195;47.744;7.358;2024-03-23T06:53:25;0.60;;;0.20;;
37309;SDS011;23195;47.744;7.358;2024-03-23T06:55:51;0.20;;;0.10;;
37309;SDS011;23195;47.744;7.358;2024-03-23T06:58:21;0.10;;;0.10;;
37309;SDS011;23195;47.744;7.358;2024-03-23T07:00:48;0.40;;;0.10;;
37309;SDS011;23195;47.744;7.358;2024-03-23T07:03:15;0.10;;;0.10;;
37309;SDS011;23195;47.744;7.358;2024-03-23T07:05:44;0.30;;;0.10;;
37309;SDS011;23195;47.744;7.358;2024-03-23T07:08:11;0.10;;;0.10;;
37309;SDS011;23195;47.744;7.358;2024-03-23T07:10:40;0.30;;;0.27;;
37309;SDS011;23195;47.744;7.358;2024-03-23T07:13:06;1.33;;;0.20;;
37309;SDS011;23195;47.744;7.358;2024-03-23T07:15:32;0.27;;;0.20;;
37309;SDS011;23195;47.744;7.358;2024-03-23T07:17:58;1.43;;;0.40;;
37309;SDS011;23195;47.744;7.358;2024-03-23T07:20:24;1.70;;;0.50;;
37309;SDS011;23195;47.744;7.358;2024-03-23T07:22:49;1.47;;;0.60;;
37309;SDS011;23195;47.744;7.358;2024-03-23T07:25:15;1.10;;;0.57;;
37309;SDS011;23195;47.744;7.358;2024-03-23T07:27:42;2.67;;;0.60;;
37309;SDS011;23195;47.744;7.358;2024-03-23T07:30:07;3.23;;;0.80;;
37309;SDS011;23195;47.744;7.358;2024-03-23T07:32:34;3.17;;;0.77;;
37309;SDS011;23195;47.744;7.358;2024-03-23T07:35:01;2.93;;;0.83;;
37309;SDS011;23195;47.744;7.358;2024-03-23T07:37:29;3.03;;;0.80;;
37309;SDS011;23195;47.744;7.358;2024-03-23T07:39:56;2.67;;;0.90;;
37309;SDS011;23195;47.744;7.358;2024-03-23T07:42:22;2.27;;;0.63;;
37309;SDS011;23195;47.744;7.358;2024-03-23T07:44:48;3.10;;;1.10;;
37309;SDS011;23195;47.744;7.358;2024-03-23T07:47:14;2.13;;;1.00;;
37309;SDS011;23195;47.744;7.358;2024-03-23T07:49:42;6.70;;;1.30;;
37309;SDS011;23195;47.744;7.358;2024-03-23T07:52:08;4.17;;;0.97;;
37309;SDS011;23195;47.744;7.358;2024-03-23T07:54:34;5.23;;;1.13;;
37309;SDS011;23195;47.744;7.358;2024-03-23T07:57:00;7.20;;;1.63;;
37309;SDS011;23195;47.744;7.358;2024-03-23T07:59:26;5.27;;;1.40;;
37309;SDS011;23195;47.744;7.358;2024-03-23T08:01:51;3.67;;;1.17;;
37309;SDS011;23195;47.744;7.358;2024-03-23T08:04:17;3.63;;;1.30;;
37309;SDS011;23195;47.744;7.358;2024-03-23T08:06:44;5.23;;;1.30;;
37309;SDS011;23195;47.744;7.358;2024-03-23T08:09:09;5.60;;;1.30;;
37309;SDS011;23195;47.744;7.358;2024-03-23T08:11:35;3.93;;;1.40;;
37309;SDS011;23195;47.744;7.358;2024-03-23T08:14:01;2.83;;;1.20;;
37309;SDS011;23195;47.744;7.358;2024-03-23T08:16:27;4.93;;;1.60;;
37309;SDS011;23195;47.744;7.358;2024-03-23T08:18:53;5.07;;;1.87;;
37309;SDS011;23195;47.744;7.358;2024-03-23T08:21:22;6.00;;;1.70;;
37309;SDS011;23195;47.744;7.358;2024-03-23T08:23:50;6.93;;;1.90;;
37309;SDS011;23195;47.744;7.358;2024-03-23T08:26:16;7.50;;;2.10;;
37309;SDS011;23195;47.744;7.358;2024-03-23T08:28:43;5.40;;;1.73;;
37309;SDS011;23195;47.744;7.358;2024-03-23T08:31:10;7.70;;;2.03;;
37309;SDS011;23195;47.744;7.358;2024-03-23T08:33:37;5.23;;;2.03;;
37309;SDS011;23195;47.744;7.358;2024-03-23T08:36:07;6.67;;;1.80;;
37309;SDS011;23195;47.744;7.358;2024-03-23T08:38:34;8.90;;;2.03;;
37309;SDS011;23195;47.744;7.358;2024-03-23T08:43:27;9.27;;;2.63;;
37309;SDS011;23195;47.744;7.358;2024-03-23T08:46:03;8.63;;;2.17;;
37309;SDS011;23195;47.744;7.358;2024-03-23T08:48:29;8.37;;;2.57;;
37309;SDS011;23195;47.744;7.358;2024-03-23T08:50:59;8.47;;;2.40;;
37309;SDS011;23195;47.744;7.358;2024-03-23T08:53:27;5.43;;;1.83;;
37309;SDS011;23195;47.744;7.358;2024-03-23T08:55:54;7.73;;;2.43;;
37309;SDS011;23195;47.744;7.358;2024-03-23T08:58:20;9.73;;;2.40;;
37309;SDS011;23195;47.744;7.358;2024-03-23T09:00:47;13.77;;;2.57;;
37309;SDS011;23195;47.744;7.358;2024-03-23T09:03:12;9.00;;;2.60;;
37309;SDS011;23195;47.744;7.358;2024-03-23T09:05:41;7.07;;;2.30;;
37309;SDS011;23195;47.744;7.358;2024-03-23T09:08:07;6.80;;;2.20;;
37309;SDS011;23195;47.744;7.358;2024-03-23T09:10:39;11.40;;;2.47;;
37309;SDS011;23195;47.744;7.358;2024-03-23T09:13:05;9.60;;;2.40;;
37309;SDS011;23195;47.744;7.358;2024-03-23T09:15:33;7.27;;;2.43;;
37309;SDS011;23195;47.744;7.358;2024-03-23T09:18:02;6.23;;;2.33;;
37309;SDS011;23195;47.744;7.358;2024-03-23T09:20:29;6.37;;;2.33;;
37309;SDS011;23195;47.744;7.358;2024-03-23T09:22:58;7.77;;;2.60;;
37309;SDS011;23195;47.744;7.358;2024-03-23T09:25:23;6.83;;;2.40;;
37309;SDS011;23195;47.744;7.358;2024-03-23T09:27:50;11.00;;;2.50;;
37309;SDS011;23195;47.744;7.358;2024-03-23T09:30:15;6.93;;;2.07;;
37309;SDS011;23195;47.744;7.358;2024-03-23T09:32:42;8.97;;;2.53;;
37309;SDS011;23195;47.744;7.358;2024-03-23T09:35:09;6.70;;;2.13;;
37309;SDS011;23195;47.744;7.358;2024-03-23T09:37:35;8.23;;;2.20;;
37309;SDS011;23195;47.744;7.358;2024-03-23T09:40:01;9.67;;;2.47;;
37309;SDS011;23195;47.744;7.358;2024-03-23T09:42:28;6.83;;;1.90;;
37309;SDS011;23195;47.744;7.358;2024-03-23T09:44:54;7.43;;;2.27;;
37309;SDS011;23195;47.744;7.358;2024-03-23T09:47:23;8.60;;;2.20;;
37309;SDS011;23195;47.744;7.358;2024-03-23T09:49:52;6.93;;;2.10;;
37309;SDS011;23195;47.744;7.358;2024-03-23T09:52:19;10.63;;;2.40;;
37309;SDS011;23195;47.744;7.358;2024-03-23T09:54:45;10.17;;;2.47;;
37309;SDS011;23195;47.744;7.358;2024-03-23T09:57:11;10.43;;;2.20;;
37309;SDS011;23195;47.744;7.358;2024-03-23T09:59:37;10.73;;;2.27;;
37309;SDS011;23195;47.744;7.358;2024-03-23T10:02:06;8.00;;;2.20;;
37309;SDS011;23195;47.744;7.358;2024-03-23T10:04:36;6.10;;;2.20;;
37309;SDS011;23195;47.744;7.358;2024-03-23T10:07:17;8.30;;;2.83;;
37309;SDS011;23195;47.744;7.358;2024-03-23T10:09:44;9.40;;;2.53;;
37309;SDS011;23195;47.744;7.358;2024-03-23T10:12:12;9.77;;;2.40;;
37309;SDS011;23195;47.744;7.358;2024-03-23T10:14:39;9.77;;;2.67;;
37309;SDS011;23195;47.744;7.358;2024-03-23T10:17:15;10.00;;;2.57;;
37309;SDS011;23195;47.744;7.358;2024-03-23T10:19:48;8.37;;;2.40;;
37309;SDS011;23195;47.744;7.358;2024-03-23T10:22:23;7.67;;;2.50;;
37309;SDS011;23195;47.744;7.358;2024-03-23T10:24:52;11.77;;;2.43;;
37309;SDS011;23195;47.744;7.358;2024-03-23T10:27:19;10.53;;;2.17;;
37309;SDS011;23195;47.744;7.358;2024-03-23T10:29:45;6.07;;;1.87;;
37309;SDS011;23195;47.744;7.358;2024-03-23T10:32:15;8.17;;;1.80;;
37309;SDS011;23195;47.744;7.358;2024-03-23T10:34:42;8.30;;;1.40;;
37309;SDS011;23195;47.744;7.358;2024-03-23T10:37:09;3.77;;;1.10;;
37309;SDS011;23195;47.744;7.358;2024-03-23T10:39:36;4.57;;;1.37;;
37309;SDS011;23195;47.744;7.358;2024-03-23T10:42:06;3.70;;;1.40;;
37309;SDS011;23195;47.744;7.358;2024-03-23T10:44:33;6.87;;;1.60;;
37309;SDS011;23195;47.744;7.358;2024-03-23T10:47:03;4.83;;;1.23;;
37309;SDS011;23195;47.744;7.358;2024-03-23T10:49:33;5.53;;;1.53;;
37309;SDS011;23195;47.744;7.358;2024-03-23T10:52:02;4.37;;;1.20;;
37309;SDS011;23195;47.744;7.358;2024-03-23T10:54:32;4.93;;;1.27;;
37309;SDS011;23195;47.744;7.358;2024-03-23T10:59:30;3.40;;;1.20;;
37309;SDS011;23195;47.744;7.358;2024-03-23T11:01:57;4.43;;;1.37;;
37309;SDS011;23195;47.744;7.358;2024-03-23T11:04:33;4.10;;;1.50;;
37309;SDS011;23195;47.744;7.358;2024-03-23T11:09:48;6.30;;;1.53;;
37309;SDS011;23195;47.744;7.358;2024-03-23T11:12:27;3.67;;;1.40;;
37309;SDS011;23195;47.744;7.358;2024-03-23T11:15:04;4.77;;;1.77;;
37309;SDS011;23195;47.744;7.358;2024-03-23T11:17:36;7.43;;;1.63;;
37309;SDS011;23195;47.744;7.358;2024-03-23T11:20:02;4.90;;;1.80;;
37309;SDS011;23195;47.744;7.358;2024-03-23T11:25:14;4.50;;;1.93;;
37309;SDS011;23195;47.744;7.358;2024-03-23T11:27:46;6.57;;;1.90;;
37309;SDS011;23195;47.744;7.358;2024-03-23T11:30:14;3.87;;;1.60;;
37309;SDS011;23195;47.744;7.358;2024-03-23T11:32:43;5.77;;;2.03;;
37309;SDS011;23195;47.744;7.358;2024-03-23T11:40:30;9.77;;;2.23;;
37309;SDS011;23195;47.744;7.358;2024-03-23T11:42:58;7.93;;;2.23;;
37309;SDS011;23195;47.744;7.358;2024-03-23T11:45:25;8.17;;;2.27;;
37309;SDS011;23195;47.744;7.358;2024-03-23T11:50:34;10.13;;;2.53;;
37309;SDS011;23195;47.744;7.358;2024-03-23T11:53:09;8.43;;;2.50;;
37309;SDS011;23195;47.744;7.358;2024-03-23T11:58:21;7.27;;;2.10;;
37309;SDS011;23195;47.744;7.358;2024-03-23T12:00:57;8.90;;;2.07;;
37309;SDS011;23195;47.744;7.358;2024-03-23T12:03:29;7.90;;;2.57;;
37309;SDS011;23195;47.744;7.358;2024-03-23T12:06:01;7.10;;;2.20;;
37309;SDS011;23195;47.744;7.358;2024-03-23T12:08:32;6.10;;;1.63;;
37309;SDS011;23195;47.744;7.358;2024-03-23T12:11:05;7.33;;;2.07;;
37309;SDS011;23195;47.744;7.358;2024-03-23T12:13:40;6.60;;;1.80;;
37309;SDS011;23195;47.744;7.358;2024-03-23T12:16:17;5.90;;;2.07;;
37309;SDS011;23195;47.744;7.358;2024-03-23T12:18:47;8.10;;;2.20;;
37309;SDS011;23195;47.744;7.358;2024-03-23T12:21:22;7.87;;;2.07;;
37309;SDS011;23195;47.744;7.358;2024-03-23T12:23:48;6.83;;;1.93;;
37309;SDS011;23195;47.744;7.358;2024-03-23T12:26:23;5.93;;;2.10;;
37309;SDS011;23195;47.744;7.358;2024-03-23T12:28:59;6.23;;;1.53;;
37309;SDS011;23195;47.744;7.358;2024-03-23T12:31:28;11.07;;;2.37;;
37309;SDS011;23195;47.744;7.358;2024-03-23T12:33:55;8.67;;;1.90;;
37309;SDS011;23195;47.744;7.358;2024-03-23T12:36:21;8.93;;;1.90;;
37309;SDS011;23195;47.744;7.358;2024-03-23T12:38:58;8.77;;;1.67;;
37309;SDS011;23195;47.744;7.358;2024-03-23T12:41:34;12.40;;;1.70;;
37309;SDS011;23195;47.744;7.358;2024-03-23T12:44:06;6.63;;;1.53;;
37309;SDS011;23195;47.744;7.358;2024-03-23T12:46:34;4.90;;;1.40;;
37309;SDS011;23195;47.744;7.358;2024-03-23T12:49:10;5.43;;;1.53;;
37309;SDS011;23195;47.744;7.358;2024-03-23T12:51:36;6.73;;;1.47;;
37309;SDS011;23195;47.744;7.358;2024-03-23T12:54:02;6.57;;;1.37;;
37309;SDS011;23195;47.744;7.358;2024-03-23T12:56:28;4.10;;;1.50;;
37309;SDS011;23195;47.744;7.358;2024-03-23T12:58:54;5.57;;;1.47;;
37309;SDS011;23195;47.744;7.358;2024-03-23T13:01:22;6.20;;;1.40;;
37309;SDS011;23195;47.744;7.358;2024-03-23T13:03:49;5.87;;;1.03;;
37309;SDS011;23195;47.744;7.358;2024-03-23T13:06:18;4.63;;;1.20;;
37309;SDS011;23195;47.744;7.358;2024-03-23T13:08:44;4.10;;;1.03;;
37309;SDS011;23195;47.744;7.358;2024-03-23T13:11:11;4.43;;;1.10;;
37309;SDS011;23195;47.744;7.358;2024-03-23T13:13:38;4.43;;;1.20;;
37309;SDS011;23195;47.744;7.358;2024-03-23T13:16:04;4.23;;;1.20;;
37309;SDS011;23195;47.744;7.358;2024-03-23T13:18:30;5.77;;;1.10;;
37309;SDS011;23195;47.744;7.358;2024-03-23T13:20:57;2.70;;;0.87;;
37309;SDS011;23195;47.744;7.358;2024-03-23T13:23:27;9.00;;;1.20;;
37309;SDS011;23195;47.744;7.358;2024-03-23T13:25:54;3.13;;;1.17;;
37309;SDS011;23195;47.744;7.358;2024-03-23T13:28:23;3.57;;;1.00;;
37309;SDS011;23195;47.744;7.358;2024-03-23T13:30:52;4.60;;;1.27;;
37309;SDS011;23195;47.744;7.358;2024-03-23T13:33:21;5.40;;;1.20;;
37309;SDS011;23195;47.744;7.358;2024-03-23T13:35:51;3.37;;;0.80;;
37309;SDS011;23195;47.744;7.358;2024-03-23T13:38:17;2.70;;;0.73;;
37309;SDS011;23195;47.744;7.358;2024-03-23T13:40:53;4.83;;;0.90;;
37309;SDS011;23195;47.744;7.358;2024-03-23T13:43:21;4.50;;;1.07;;
37309;SDS011;23195;47.744;7.358;2024-03-23T13:45:48;3.93;;;0.97;;
37309;SDS011;23195;47.744;7.358;2024-03-23T13:48:17;2.80;;;1.03;;
37309;SDS011;23195;47.744;7.358;2024-03-23T13:50:56;3.60;;;1.30;;
37309;SDS011;23195;47.744;7.358;2024-03-23T13:53:25;6.53;;;1.07;;
37309;SDS011;23195;47.744;7.358;2024-03-23T13:55:51;5.10;;;1.10;;
37309;SDS011;23195;47.744;7.358;2024-03-23T13:58:18;3.97;;;1.20;;
37309;SDS011;23195;47.744;7.358;2024-03-23T14:00:44;4.27;;;1.10;;
37309;SDS011;23195;47.744;7.358;2024-03-23T14:03:10;4.47;;;1.10;;
37309;SDS011;23195;47.744;7.358;2024-03-23T14:05:36;6.83;;;1.30;;
37309;SDS011;23195;47.744;7.358;2024-03-23T14:08:06;4.53;;;1.30;;
37309;SDS011;23195;47.744;7.358;2024-03-23T14:10:32;10.80;;;1.50;;
37309;SDS011;23195;47.744;7.358;2024-03-23T14:12:58;14.07;;;1.30;;
37309;SDS011;23195;47.744;7.358;2024-03-23T14:15:28;8.53;;;1.23;;
37309;SDS011;23195;47.744;7.358;2024-03-23T14:17:55;6.13;;;1.30;;
37309;SDS011;23195;47.744;7.358;2024-03-23T14:20:22;4.67;;;0.77;;
37309;SDS011;23195;47.744;7.358;2024-03-23T14:22:48;4.30;;;1.20;;
37309;SDS011;23195;47.744;7.358;2024-03-23T14:25:17;4.73;;;1.20;;
37309;SDS011;23195;47.744;7.358;2024-03-23T14:27:43;5.23;;;0.80;;
37309;SDS011;23195;47.744;7.358;2024-03-23T14:30:10;2.63;;;0.70;;
37309;SDS011;23195;47.744;7.358;2024-03-23T14:32:37;4.63;;;1.00;;
37309;SDS011;23195;47.744;7.358;2024-03-23T14:35:03;2.90;;;0.70;;
37309;SDS011;23195;47.744;7.358;2024-03-23T14:37:30;3.03;;;0.70;;
37309;SDS011;23195;47.744;7.358;2024-03-23T14:39:56;3.60;;;1.40;;
37309;SDS011;23195;47.744;7.358;2024-03-23T14:42:25;3.67;;;0.83;;
37309;SDS011;23195;47.744;7.358;2024-03-23T14:44:51;5.23;;;1.20;;
37309;SDS011;23195;47.744;7.358;2024-03-23T14:47:17;4.97;;;1.00;;
37309;SDS011;23195;47.744;7.358;2024-03-23T14:49:44;3.73;;;1.00;;
37309;SDS011;23195;47.744;7.358;2024-03-23T14:52:19;4.13;;;1.03;;
37309;SDS011;23195;47.744;7.358;2024-03-23T14:54:45;4.97;;;1.00;;
37309;SDS011;23195;47.744;7.358;2024-03-23T14:57:12;4.03;;;1.00;;
37309;SDS011;23195;47.744;7.358;2024-03-23T14:59:38;2.20;;;0.80;;
37309;SDS011;23195;47.744;7.358;2024-03-23T15:02:05;3.77;;;1.10;;
37309;SDS011;23195;47.744;7.358;2024-03-23T15:04:32;7.13;;;1.20;;
37309;SDS011;23195;47.744;7.358;2024-03-23T15:06:58;4.13;;;1.30;;
37309;SDS011;23195;47.744;7.358;2024-03-23T15:09:24;4.13;;;1.27;;
37309;SDS011;23195;47.744;7.358;2024-03-23T15:11:50;3.33;;;0.97;;
37309;SDS011;23195;47.744;7.358;2024-03-23T15:14:15;3.63;;;0.90;;
37309;SDS011;23195;47.744;7.358;2024-03-23T15:16:41;4.10;;;1.20;;
37309;SDS011;23195;47.744;7.358;2024-03-23T15:19:07;4.77;;;1.23;;
37309;SDS011;23195;47.744;7.358;2024-03-23T15:21:33;2.87;;;1.00;;
37309;SDS011;23195;47.744;7.358;2024-03-23T15:23:59;5.27;;;1.23;;
37309;SDS011;23195;47.744;7.358;2024-03-23T15:26:28;3.90;;;0.93;;
37309;SDS011;23195;47.744;7.358;2024-03-23T15:28:54;4.13;;;1.10;;
37309;SDS011;23195;47.744;7.358;2024-03-23T15:31:22;4.37;;;1.10;;
37309;SDS011;23195;47.744;7.358;2024-03-23T15:33:48;8.13;;;1.40;;
37309;SDS011;23195;47.744;7.358;2024-03-23T15:36:14;5.97;;;1.10;;
37309;SDS011;23195;47.744;7.358;2024-03-23T15:38:40;9.47;;;1.80;;
37309;SDS011;23195;47.744;7.358;2024-03-23T15:41:07;3.70;;;0.80;;
37309;SDS011;23195;47.744;7.358;2024-03-23T15:43:34;5.37;;;1.00;;
37309;SDS011;23195;47.744;7.358;2024-03-23T15:46:00;2.77;;;0.70;;
37309;SDS011;23195;47.744;7.358;2024-03-23T15:48:28;4.07;;;0.90;;
37309;SDS011;23195;47.744;7.358;2024-03-23T15:50:59;3.60;;;0.87;;
37309;SDS011;23195;47.744;7.358;2024-03-23T15:53:29;3.03;;;0.80;;
37309;SDS011;23195;47.744;7.358;2024-03-23T15:55:59;2.43;;;0.83;;
37309;SDS011;23195;47.744;7.358;2024-03-23T15:58:26;4.93;;;1.03;;
37309;SDS011;23195;47.744;7.358;2024-03-23T16:00:59;2.90;;;0.80;;